sensor_id;sensor_type;location;lat;lon;timestamp;pressure;altitude;pressure_sealevel;temperature;humidity
24746;BME280;12845;52.042;6.838;2023-04-22T00:00:27;-18270.22;;;8.99;100.00
24746;BME280;12845;52.042;6.838;2023-04-22T00:02:53;-18268.41;;;8.93;100.00
24746;BME280;12845;52.042;6.838;2023-04-22T00:05:20;-18266.91;;;8.87;100.00
24746;BME280;12845;52.042;6.838;2023-04-22T00:07:45;-18268.00;;;8.91;100.00
24746;BME280;12845;52.042;6.838;2023-04-22T00:10:11;-18264.56;;;8.78;100.00
24746;BME280;12845;52.042;6.838;2023-04-22T00:12:36;-18263.19;;;8.73;100.00
24746;BME280;12845;52.042;6.838;2023-04-22T00:15:02;-18262.50;;;8.71;100.00
24746;BME280;12845;52.042;6.838;2023-04-22T00:17:27;-18261.13;;;8.66;100.00
24746;BME280;12845;52.042;6.838;2023-04-22T00:19:53;-18259.19;;;8.58;100.00
24746;BME280;12845;52.042;6.838;2023-04-22T00:22:18;-18253.56;;;8.38;100.00
24746;BME280;12845;52.042;6.838;2023-04-22T00:24:44;-18252.19;;;8.32;100.00
24746;BME280;12845;52.042;6.838;2023-04-22T00:27:09;-18250.53;;;8.26;100.00
24746;BME280;12845;52.042;6.838;2023-04-22T00:29:35;-18250.25;;;8.25;100.00
24746;BME280;12845;52.042;6.838;2023-04-22T00:32:01;-18249.41;;;8.22;100.00
24746;BME280;12845;52.042;6.838;2023-04-22T00:34:26;-18249.16;;;8.21;100.00
24746;BME280;12845;52.042;6.838;2023-04-22T00:36:51;-18247.34;;;8.14;100.00
24746;BME280;12845;52.042;6.838;2023-04-22T00:39:17;-18249.69;;;8.23;100.00
24746;BME280;12845;52.042;6.838;2023-04-22T00:41:42;-18252.44;;;8.33;100.00
24746;BME280;12845;52.042;6.838;2023-04-22T00:44:09;-18251.34;;;8.29;100.00
24746;BME280;12845;52.042;6.838;2023-04-22T00:46:36;-18250.94;;;8.28;100.00
24746;BME280;12845;52.042;6.838;2023-04-22T00:49:03;-18249.28;;;8.22;100.00
24746;BME280;12845;52.042;6.838;2023-04-22T00:51:28;-18250.53;;;8.26;100.00
24746;BME280;12845;52.042;6.838;2023-04-22T00:53:53;-18247.91;;;8.17;100.00
24746;BME280;12845;52.042;6.838;2023-04-22T00:56:20;-18244.75;;;8.05;100.00
24746;BME280;12845;52.042;6.838;2023-04-22T00:58:46;-18246.66;;;8.12;100.00
24746;BME280;12845;52.042;6.838;2023-04-22T01:01:12;-18245.03;;;8.06;100.00
24746;BME280;12845;52.042;6.838;2023-04-22T01:03:37;-18246.25;;;8.10;100.00
24746;BME280;12845;52.042;6.838;2023-04-22T01:06:04;-18243.91;;;8.02;100.00
24746;BME280;12845;52.042;6.838;2023-04-22T01:08:30;-18241.84;;;7.94;100.00
24746;BME280;12845;52.042;6.838;2023-04-22T01:10:57;-18241.16;;;7.91;100.00
24746;BME280;12845;52.042;6.838;2023-04-22T01:13:23;-18239.09;;;7.84;100.00
24746;BME280;12845;52.042;6.838;2023-04-22T01:15:50;-18235.78;;;7.72;100.00
24746;BME280;12845;52.042;6.838;2023-04-22T01:18:16;-18236.19;;;7.73;100.00
24746;BME280;12845;52.042;6.838;2023-04-22T01:20:41;-18238.13;;;7.80;100.00
24746;BME280;12845;52.042;6.838;2023-04-22T01:23:15;-18236.63;;;7.75;100.00
24746;BME280;12845;52.042;6.838;2023-04-22T01:25:41;-18236.34;;;7.74;100.00
24746;BME280;12845;52.042;6.838;2023-04-22T01:28:07;-18237.16;;;7.77;100.00
24746;BME280;12845;52.042;6.838;2023-04-22T01:30:33;-18235.38;;;7.70;100.00
24746;BME280;12845;52.042;6.838;2023-04-22T01:32:59;-18234.69;;;7.67;100.00
24746;BME280;12845;52.042;6.838;2023-04-22T01:35:24;-18233.72;;;7.64;100.00
24746;BME280;12845;52.042;6.838;2023-04-22T01:37:50;-18232.06;;;7.58;100.00
24746;BME280;12845;52.042;6.838;2023-04-22T01:40:15;-18229.72;;;7.49;100.00
24746;BME280;12845;52.042;6.838;2023-04-22T01:42:44;-18225.31;;;7.33;100.00
24746;BME280;12845;52.042;6.838;2023-04-22T01:45:09;-18224.91;;;7.31;100.00
24746;BME280;12845;52.042;6.838;2023-04-22T01:47:37;-18225.59;;;7.34;100.00
24746;BME280;12845;52.042;6.838;2023-04-22T01:50:02;-18225.31;;;7.33;100.00
24746;BME280;12845;52.042;6.838;2023-04-22T01:52:29;-18224.91;;;7.31;100.00
24746;BME280;12845;52.042;6.838;2023-04-22T01:54:55;-18223.94;;;7.28;100.00
24746;BME280;12845;52.042;6.838;2023-04-22T01:57:20;-18223.81;;;7.27;100.00
24746;BME280;12845;52.042;6.838;2023-04-22T01:59:45;-18225.03;;;7.32;100.00
24746;BME280;12845;52.042;6.838;2023-04-22T02:02:11;-18224.63;;;7.30;100.00
24746;BME280;12845;52.042;6.838;2023-04-22T02:04:36;-18224.34;;;7.29;100.00
24746;BME280;12845;52.042;6.838;2023-04-22T02:07:01;-18224.09;;;7.28;100.00
24746;BME280;12845;52.042;6.838;2023-04-22T02:09:27;-18223.66;;;7.27;100.00
24746;BME280;12845;52.042;6.838;2023-04-22T02:11:52;-18223.41;;;7.26;100.00
24746;BME280;12845;52.042;6.838;2023-04-22T02:14:17;-18223.53;;;7.26;100.00
24746;BME280;12845;52.042;6.838;2023-04-22T02:16:43;-18226.97;;;7.39;100.00
24746;BME280;12845;52.042;6.838;2023-04-22T02:19:08;-18228.50;;;7.44;100.00
24746;BME280;12845;52.042;6.838;2023-04-22T02:21:34;-18233.31;;;7.62;100.00
24746;BME280;12845;52.042;6.838;2023-04-22T02:23:59;-18236.47;;;7.74;100.00
24746;BME280;12845;52.042;6.838;2023-04-22T02:26:25;-18238.53;;;7.82;100.00
24746;BME280;12845;52.042;6.838;2023-04-22T02:28:53;-18237.84;;;7.79;100.00
24746;BME280;12845;52.042;6.838;2023-04-22T02:31:18;-18238.41;;;7.81;100.00
24746;BME280;12845;52.042;6.838;2023-04-22T02:33:44;-18238.13;;;7.80;100.00
24746;BME280;12845;52.042;6.838;2023-04-22T02:36:09;-18238.28;;;7.81;100.00
24746;BME280;12845;52.042;6.838;2023-04-22T02:38:35;-18237.72;;;7.79;100.00
24746;BME280;12845;52.042;6.838;2023-04-22T02:41:01;-18238.28;;;7.81;100.00
24746;BME280;12845;52.042;6.838;2023-04-22T02:43:26;-18237.44;;;7.78;100.00
24746;BME280;12845;52.042;6.838;2023-04-22T02:45:51;-18237.72;;;7.79;100.00
24746;BME280;12845;52.042;6.838;2023-04-22T02:48:17;-18237.44;;;7.78;100.00
24746;BME280;12845;52.042;6.838;2023-04-22T02:50:42;-18237.59;;;7.78;100.00
24746;BME280;12845;52.042;6.838;2023-04-22T02:53:07;-18239.22;;;7.84;100.00
24746;BME280;12845;52.042;6.838;2023-04-22T02:55:33;-18239.09;;;7.84;100.00
24746;BME280;12845;52.042;6.838;2023-04-22T02:57:58;-18240.59;;;7.89;100.00
24746;BME280;12845;52.042;6.838;2023-04-22T03:00:23;-18239.50;;;7.85;100.00
24746;BME280;12845;52.042;6.838;2023-04-22T03:02:49;-18238.97;;;7.83;100.00
24746;BME280;12845;52.042;6.838;2023-04-22T03:05:14;-18238.97;;;7.83;100.00
24746;BME280;12845;52.042;6.838;2023-04-22T03:07:40;-18238.41;;;7.81;100.00
24746;BME280;12845;52.042;6.838;2023-04-22T03:10:06;-18237.84;;;7.79;100.00
24746;BME280;12845;52.042;6.838;2023-04-22T03:12:31;-18237.31;;;7.77;100.00
24746;BME280;12845;52.042;6.838;2023-04-22T03:14:57;-18239.78;;;7.86;100.00
24746;BME280;12845;52.042;6.838;2023-04-22T03:17:22;-18239.50;;;7.85;100.00
24746;BME280;12845;52.042;6.838;2023-04-22T03:19:47;-18240.34;;;7.88;100.00
24746;BME280;12845;52.042;6.838;2023-04-22T03:22:13;-18240.59;;;7.89;100.00
24746;BME280;12845;52.042;6.838;2023-04-22T03:24:38;-18240.75;;;7.90;100.00
24746;BME280;12845;52.042;6.838;2023-04-22T03:27:04;-18242.53;;;7.97;100.00
24746;BME280;12845;52.042;6.838;2023-04-22T03:29:29;-18245.16;;;8.06;100.00
24746;BME280;12845;52.042;6.838;2023-04-22T03:31:54;-18247.22;;;8.14;100.00
24746;BME280;12845;52.042;6.838;2023-04-22T03:34:20;-18248.03;;;8.17;100.00
24746;BME280;12845;52.042;6.838;2023-04-22T03:36:45;-18250.09;;;8.25;100.00
24746;BME280;12845;52.042;6.838;2023-04-22T03:39:10;-18253.28;;;8.36;100.00
24746;BME280;12845;52.042;6.838;2023-04-22T03:41:36;-18254.66;;;8.42;100.00
24746;BME280;12845;52.042;6.838;2023-04-22T03:44:01;-18254.66;;;8.42;100.00
24746;BME280;12845;52.042;6.838;2023-04-22T03:46:26;-18256.31;;;8.48;100.00
24746;BME280;12845;52.042;6.838;2023-04-22T03:48:52;-18257.56;;;8.52;100.00
24746;BME280;12845;52.042;6.838;2023-04-22T03:51:17;-18259.06;;;8.58;100.00
24746;BME280;12845;52.042;6.838;2023-04-22T03:53:42;-18260.84;;;8.65;100.00
24746;BME280;12845;52.042;6.838;2023-04-22T03:56:08;-18262.38;;;8.70;100.00
24746;BME280;12845;52.042;6.838;2023-04-22T03:58:33;-18264.00;;;8.76;100.00
24746;BME280;12845;52.042;6.838;2023-04-22T04:00:58;-18263.06;;;8.73;100.00
24746;BME280;12845;52.042;6.838;2023-04-22T04:03:24;-18261.81;;;8.68;100.00
24746;BME280;12845;52.042;6.838;2023-04-22T04:05:50;-18262.91;;;8.72;100.00
24746;BME280;12845;52.042;6.838;2023-04-22T04:08:15;-18262.38;;;8.70;100.00
24746;BME280;12845;52.042;6.838;2023-04-22T04:10:41;-18262.63;;;8.71;100.00
24746;BME280;12845;52.042;6.838;2023-04-22T04:13:06;-18264.84;;;8.79;100.00
24746;BME280;12845;52.042;6.838;2023-04-22T04:15:31;-18264.84;;;8.79;100.00
24746;BME280;12845;52.042;6.838;2023-04-22T04:17:58;-18265.41;;;8.81;100.00
24746;BME280;12845;52.042;6.838;2023-04-22T04:20:25;-18266.50;;;8.86;100.00
24746;BME280;12845;52.042;6.838;2023-04-22T04:22:50;-18268.00;;;8.91;100.00
24746;BME280;12845;52.042;6.838;2023-04-22T04:25:16;-18267.59;;;8.90;100.00
24746;BME280;12845;52.042;6.838;2023-04-22T04:27:42;-18268.41;;;8.93;100.00
24746;BME280;12845;52.042;6.838;2023-04-22T04:30:08;-18268.69;;;8.94;100.00
24746;BME280;12845;52.042;6.838;2023-04-22T04:32:34;-18268.69;;;8.94;100.00
24746;BME280;12845;52.042;6.838;2023-04-22T04:34:59;-18269.09;;;8.95;100.00
24746;BME280;12845;52.042;6.838;2023-04-22T04:37:26;-18268.56;;;8.93;100.00
24746;BME280;12845;52.042;6.838;2023-04-22T04:39:51;-18270.34;;;9.00;100.00
24746;BME280;12845;52.042;6.838;2023-04-22T04:42:17;-18266.78;;;8.87;100.00
24746;BME280;12845;52.042;6.838;2023-04-22T04:44:44;-18267.47;;;8.89;100.00
24746;BME280;12845;52.042;6.838;2023-04-22T04:47:11;-18267.31;;;8.89;100.00
24746;BME280;12845;52.042;6.838;2023-04-22T04:49:37;-18268.84;;;8.94;100.00
24746;BME280;12845;52.042;6.838;2023-04-22T04:52:04;-18269.09;;;8.95;100.00
24746;BME280;12845;52.042;6.838;2023-04-22T04:54:31;-18267.03;;;8.88;100.00
24746;BME280;12845;52.042;6.838;2023-04-22T04:56:57;-18265.41;;;8.81;100.00
24746;BME280;12845;52.042;6.838;2023-04-22T04:59:22;-18267.31;;;8.89;100.00
24746;BME280;12845;52.042;6.838;2023-04-22T05:01:48;-18268.00;;;8.91;100.00
24746;BME280;12845;52.042;6.838;2023-04-22T05:04:13;-18268.16;;;8.92;100.00
24746;BME280;12845;52.042;6.838;2023-04-22T05:06:38;-18267.88;;;8.91;100.00
24746;BME280;12845;52.042;6.838;2023-04-22T05:09:04;-18267.88;;;8.91;100.00
24746;BME280;12845;52.042;6.838;2023-04-22T05:11:29;-18268.16;;;8.92;100.00
24746;BME280;12845;52.042;6.838;2023-04-22T05:13:55;-18268.97;;;8.95;100.00
24746;BME280;12845;52.042;6.838;2023-04-22T05:16:20;-18268.97;;;8.95;100.00
24746;BME280;12845;52.042;6.838;2023-04-22T05:18:46;-18270.34;;;9.00;100.00
24746;BME280;12845;52.042;6.838;2023-04-22T05:21:11;-18270.22;;;8.99;100.00
24746;BME280;12845;52.042;6.838;2023-04-22T05:23:36;-18272.00;;;9.06;100.00
24746;BME280;12845;52.042;6.838;2023-04-22T05:26:02;-18272.81;;;9.09;100.00
24746;BME280;12845;52.042;6.838;2023-04-22T05:28:27;-18273.50;;;9.12;100.00
24746;BME280;12845;52.042;6.838;2023-04-22T05:30:53;-18273.38;;;9.11;100.00
24746;BME280;12845;52.042;6.838;2023-04-22T05:33:18;-18274.19;;;9.14;100.00
24746;BME280;12845;52.042;6.838;2023-04-22T05:35:43;-18274.88;;;9.17;100.00
24746;BME280;12845;52.042;6.838;2023-04-22T05:38:09;-18275.72;;;9.20;100.00
24746;BME280;12845;52.042;6.838;2023-04-22T05:40:35;-18278.06;;;9.29;100.00
24746;BME280;12845;52.042;6.838;2023-04-22T05:43:00;-18279.16;;;9.33;100.00
24746;BME280;12845;52.042;6.838;2023-04-22T05:45:25;-18281.22;;;9.40;100.00
24746;BME280;12845;52.042;6.838;2023-04-22T05:47:51;-18282.03;;;9.43;100.00
24746;BME280;12845;52.042;6.838;2023-04-22T05:50:16;-18282.44;;;9.45;100.00
24746;BME280;12845;52.042;6.838;2023-04-22T05:52:41;-18284.09;;;9.51;100.00
24746;BME280;12845;52.042;6.838;2023-04-22T05:55:07;-18284.09;;;9.51;100.00
24746;BME280;12845;52.042;6.838;2023-04-22T05:57:32;-18285.06;;;9.55;100.00
24746;BME280;12845;52.042;6.838;2023-04-22T05:59:59;-18284.94;;;9.54;100.00
24746;BME280;12845;52.042;6.838;2023-04-22T06:02:24;-18285.06;;;9.55;100.00
24746;BME280;12845;52.042;6.838;2023-04-22T06:04:50;-18285.19;;;9.55;100.00
24746;BME280;12845;52.042;6.838;2023-04-22T06:07:15;-18287.69;;;9.64;100.00
24746;BME280;12845;52.042;6.838;2023-04-22T06:09:41;-18288.78;;;9.68;100.00
24746;BME280;12845;52.042;6.838;2023-04-22T06:12:06;-18289.19;;;9.70;100.00
24746;BME280;12845;52.042;6.838;2023-04-22T06:14:31;-18290.56;;;9.75;100.00
24746;BME280;12845;52.042;6.838;2023-04-22T06:16:57;-18291.66;;;9.79;100.00
24746;BME280;12845;52.042;6.838;2023-04-22T06:19:22;-18292.91;;;9.84;100.00
24746;BME280;12845;52.042;6.838;2023-04-22T06:21:48;-18294.00;;;9.88;100.00
24746;BME280;12845;52.042;6.838;2023-04-22T06:24:13;-18295.66;;;9.94;100.00
24746;BME280;12845;52.042;6.838;2023-04-22T06:26:38;-18297.31;;;10.00;100.00
24746;BME280;12845;52.042;6.838;2023-04-22T06:29:04;-18298.69;;;10.05;100.00
24746;BME280;12845;52.042;6.838;2023-04-22T06:31:32;-18300.47;;;10.12;100.00
24746;BME280;12845;52.042;6.838;2023-04-22T06:33:58;-18302.53;;;10.20;100.00
24746;BME280;12845;52.042;6.838;2023-04-22T06:36:24;-18303.34;;;10.23;100.00
24746;BME280;12845;52.042;6.838;2023-04-22T06:38:50;-18305.56;;;10.31;100.00
24746;BME280;12845;52.042;6.838;2023-04-22T06:41:16;-18307.47;;;10.38;100.00
24746;BME280;12845;52.042;6.838;2023-04-22T06:43:41;-18308.56;;;10.42;100.00
24746;BME280;12845;52.042;6.838;2023-04-22T06:46:06;-18311.47;;;10.53;100.00
24746;BME280;12845;52.042;6.838;2023-04-22T06:48:32;-18313.25;;;10.59;100.00
24746;BME280;12845;52.042;6.838;2023-04-22T06:50:57;-18316.53;;;10.72;100.00
24746;BME280;12845;52.042;6.838;2023-04-22T06:53:23;-18317.63;;;10.76;100.00
24746;BME280;12845;52.042;6.838;2023-04-22T06:55:48;-18317.22;;;10.74;100.00
24746;BME280;12845;52.042;6.838;2023-04-22T06:58:14;-18318.47;;;10.79;100.00
24746;BME280;12845;52.042;6.838;2023-04-22T07:00:39;-18320.13;;;10.85;100.00
24746;BME280;12845;52.042;6.838;2023-04-22T07:03:05;-18320.66;;;10.87;100.00
24746;BME280;12845;52.042;6.838;2023-04-22T07:05:30;-18321.75;;;10.91;100.00
24746;BME280;12845;52.042;6.838;2023-04-22T07:07:56;-18322.44;;;10.94;100.00
24746;BME280;12845;52.042;6.838;2023-04-22T07:10:21;-18322.72;;;10.95;100.00
24746;BME280;12845;52.042;6.838;2023-04-22T07:12:47;-18323.28;;;10.97;100.00
24746;BME280;12845;52.042;6.838;2023-04-22T07:15:12;-18326.28;;;11.08;100.00
24746;BME280;12845;52.042;6.838;2023-04-22T07:17:37;-18327.81;;;11.14;100.00
24746;BME280;12845;52.042;6.838;2023-04-22T07:20:03;-18328.91;;;11.18;100.00
24746;BME280;12845;52.042;6.838;2023-04-22T07:22:28;-18330.56;;;11.24;100.00
24746;BME280;12845;52.042;6.838;2023-04-22T07:24:54;-18332.88;;;11.33;100.00
24746;BME280;12845;52.042;6.838;2023-04-22T07:27:20;-18333.31;;;11.34;100.00
24746;BME280;12845;52.042;6.838;2023-04-22T07:29:45;-18336.59;;;11.46;100.00
24746;BME280;12845;52.042;6.838;2023-04-22T07:32:11;-18342.50;;;11.68;100.00
24746;BME280;12845;52.042;6.838;2023-04-22T07:34:36;-18347.56;;;11.87;100.00
24746;BME280;12845;52.042;6.838;2023-04-22T07:37:01;-18351.41;;;12.02;100.00
24746;BME280;12845;52.042;6.838;2023-04-22T07:39:27;-18356.78;;;12.22;100.00
24746;BME280;12845;52.042;6.838;2023-04-22T07:41:52;-18360.88;;;12.37;100.00
24746;BME280;12845;52.042;6.838;2023-04-22T07:44:18;-18363.34;;;12.46;100.00
24746;BME280;12845;52.042;6.838;2023-04-22T07:46:46;-18366.91;;;12.59;100.00
24746;BME280;12845;52.042;6.838;2023-04-22T07:49:12;-18372.28;;;12.79;100.00
24746;BME280;12845;52.042;6.838;2023-04-22T07:51:42;-18377.22;;;12.98;100.00
24746;BME280;12845;52.042;6.838;2023-04-22T07:54:08;-18378.03;;;13.01;100.00
24746;BME280;12845;52.042;6.838;2023-04-22T07:56:33;-18382.69;;;13.18;100.00
24746;BME280;12845;52.042;6.838;2023-04-22T07:58:59;-18387.06;;;13.35;100.00
24746;BME280;12845;52.042;6.838;2023-04-22T08:01:24;-18392.41;;;13.54;100.00
24746;BME280;12845;52.042;6.838;2023-04-22T08:03:49;-18397.34;;;13.73;100.00
24746;BME280;12845;52.042;6.838;2023-04-22T08:06:15;-18400.38;;;13.84;100.00
24746;BME280;12845;52.042;6.838;2023-04-22T08:08:40;-18405.03;;;14.02;100.00
24746;BME280;12845;52.042;6.838;2023-04-22T08:11:06;-18409.56;;;14.18;100.00
24746;BME280;12845;52.042;6.838;2023-04-22T08:13:31;-18412.56;;;14.30;100.00
24746;BME280;12845;52.042;6.838;2023-04-22T08:15:58;-18415.56;;;14.41;100.00
24746;BME280;12845;52.042;6.838;2023-04-22T08:18:24;-18419.00;;;14.54;100.00
24746;BME280;12845;52.042;6.838;2023-04-22T08:20:49;-18419.97;;;14.57;100.00
24746;BME280;12845;52.042;6.838;2023-04-22T08:23:14;-18423.25;;;14.70;100.00
24746;BME280;12845;52.042;6.838;2023-04-22T08:25:40;-18424.59;;;14.75;100.00
24746;BME280;12845;52.042;6.838;2023-04-22T08:28:06;-18425.97;;;14.80;100.00
24746;BME280;12845;52.042;6.838;2023-04-22T08:30:31;-18431.19;;;14.99;100.00
24746;BME280;12845;52.042;6.838;2023-04-22T08:32:56;-18432.13;;;15.03;100.00
24746;BME280;12845;52.042;6.838;2023-04-22T08:35:22;-18432.53;;;15.04;100.00
24746;BME280;12845;52.042;6.838;2023-04-22T08:37:47;-18434.59;;;15.12;100.00
24746;BME280;12845;52.042;6.838;2023-04-22T08:40:12;-18434.72;;;15.12;100.00
24746;BME280;12845;52.042;6.838;2023-04-22T08:42:38;-18436.09;;;15.18;100.00
24746;BME280;12845;52.042;6.838;2023-04-22T08:45:04;-18437.06;;;15.21;100.00
24746;BME280;12845;52.042;6.838;2023-04-22T08:47:31;-18439.53;;;15.30;100.00
24746;BME280;12845;52.042;6.838;2023-04-22T08:50:01;-18442.00;;;15.40;100.00
24746;BME280;12845;52.042;6.838;2023-04-22T08:52:29;-18442.66;;;15.42;100.00
24746;BME280;12845;52.042;6.838;2023-04-22T08:54:55;-18446.22;;;15.55;100.00
24746;BME280;12845;52.042;6.838;2023-04-22T08:57:21;-18449.09;;;15.66;100.00
24746;BME280;12845;52.042;6.838;2023-04-22T08:59:47;-18451.28;;;15.74;100.00
24746;BME280;12845;52.042;6.838;2023-04-22T09:02:18;-18455.81;;;15.91;100.00
24746;BME280;12845;52.042;6.838;2023-04-22T09:04:45;-18460.72;;;16.10;100.00
24746;BME280;12845;52.042;6.838;2023-04-22T09:07:11;-18464.41;;;16.23;100.00
24746;BME280;12845;52.042;6.838;2023-04-22T09:09:43;-18467.00;;;16.33;100.00
24746;BME280;12845;52.042;6.838;2023-04-22T09:12:09;-18468.25;;;16.38;100.00
24746;BME280;12845;52.042;6.838;2023-04-22T09:14:35;-18465.38;;;16.27;100.00
24746;BME280;12845;52.042;6.838;2023-04-22T09:17:01;-18467.81;;;16.36;100.00
24746;BME280;12845;52.042;6.838;2023-04-22T09:19:27;-18468.94;;;16.40;100.00
24746;BME280;12845;52.042;6.838;2023-04-22T09:21:53;-18469.06;;;16.41;100.00
24746;BME280;12845;52.042;6.838;2023-04-22T09:24:21;-18469.19;;;16.41;100.00
24746;BME280;12845;52.042;6.838;2023-04-22T09:26:47;-18470.16;;;16.45;100.00
24746;BME280;12845;52.042;6.838;2023-04-22T09:29:14;-18472.34;;;16.53;100.00
24746;BME280;12845;52.042;6.838;2023-04-22T09:31:39;-18475.22;;;16.64;100.00
24746;BME280;12845;52.042;6.838;2023-04-22T09:34:05;-18477.66;;;16.73;100.00
24746;BME280;12845;52.042;6.838;2023-04-22T09:36:31;-18476.72;;;16.69;100.00
24746;BME280;12845;52.042;6.838;2023-04-22T09:39:05;-18478.22;;;16.75;100.00
24746;BME280;12845;52.042;6.838;2023-04-22T09:41:32;-18480.94;;;16.85;100.00
24746;BME280;12845;52.042;6.838;2023-04-22T09:43:59;-18479.59;;;16.80;100.00
24746;BME280;12845;52.042;6.838;2023-04-22T09:46:26;-18480.69;;;16.84;100.00
24746;BME280;12845;52.042;6.838;2023-04-22T09:48:57;-18480.00;;;16.82;100.00
24746;BME280;12845;52.042;6.838;2023-04-22T09:51:23;-18481.75;;;16.88;100.00
24746;BME280;12845;52.042;6.838;2023-04-22T09:53:59;-18484.91;;;17.00;100.00
24746;BME280;12845;52.042;6.838;2023-04-22T09:56:47;-18487.22;;;17.09;100.00
24746;BME280;12845;52.042;6.838;2023-04-22T10:01:41;-18492.41;;;17.28;100.00
24746;BME280;12845;52.042;6.838;2023-04-22T10:04:07;-18490.38;;;17.21;100.00
24746;BME280;12845;52.042;6.838;2023-04-22T10:06:39;-18495.56;;;17.40;100.00
24746;BME280;12845;52.042;6.838;2023-04-22T10:09:04;-18498.56;;;17.51;100.00
24746;BME280;12845;52.042;6.838;2023-04-22T10:11:31;-18501.56;;;17.63;100.00
24746;BME280;12845;52.042;6.838;2023-04-22T10:13:57;-18506.63;;;17.81;100.00
24746;BME280;12845;52.042;6.838;2023-04-22T10:16:25;-18507.97;;;17.87;100.00
24746;BME280;12845;52.042;6.838;2023-04-22T10:18:53;-18512.34;;;18.03;100.00
24746;BME280;12845;52.042;6.838;2023-04-22T10:21:22;-18518.34;;;18.25;100.00
24746;BME280;12845;52.042;6.838;2023-04-22T10:23:49;-18523.25;;;18.44;100.00
24746;BME280;12845;52.042;6.838;2023-04-22T10:26:46;-18522.31;;;18.40;100.00
24746;BME280;12845;52.042;6.838;2023-04-22T10:29:15;-18522.44;;;18.41;100.00
24746;BME280;12845;52.042;6.838;2023-04-22T10:31:51;-18523.25;;;18.44;100.00
24746;BME280;12845;52.042;6.838;2023-04-22T10:34:17;-18526.53;;;18.56;100.00
24746;BME280;12845;52.042;6.838;2023-04-22T10:36:57;-18528.56;;;18.64;100.00
24746;BME280;12845;52.042;6.838;2023-04-22T10:39:25;-18533.63;;;18.83;100.00
24746;BME280;12845;52.042;6.838;2023-04-22T10:44:28;-18545.88;;;19.29;100.00
24746;BME280;12845;52.042;6.838;2023-04-22T10:46:58;-18547.25;;;19.34;100.00
24746;BME280;12845;52.042;6.838;2023-04-22T10:49:25;-18552.28;;;19.53;100.00
24746;BME280;12845;52.042;6.838;2023-04-22T10:51:51;-18552.97;;;19.55;100.00
24746;BME280;12845;52.042;6.838;2023-04-22T10:57:05;-18557.19;;;19.71;100.00
24746;BME280;12845;52.042;6.838;2023-04-22T10:59:31;-18557.06;;;19.71;100.00
24746;BME280;12845;52.042;6.838;2023-04-22T11:02:01;-18557.34;;;19.72;100.00
24746;BME280;12845;52.042;6.838;2023-04-22T11:04:27;-18554.34;;;19.60;100.00
24746;BME280;12845;52.042;6.838;2023-04-22T11:07:16;-18554.06;;;19.59;100.00
24746;BME280;12845;52.042;6.838;2023-04-22T11:14:59;-18563.47;;;19.95;100.00
24746;BME280;12845;52.042;6.838;2023-04-22T11:17:25;-18565.38;;;20.02;100.00
24746;BME280;12845;52.042;6.838;2023-04-22T11:19:50;-18563.72;;;19.96;100.00
24746;BME280;12845;52.042;6.838;2023-04-22T11:22:22;-18566.31;;;20.05;100.00
24746;BME280;12845;52.042;6.838;2023-04-22T11:25:00;-18565.50;;;20.02;100.00
24746;BME280;12845;52.042;6.838;2023-04-22T11:27:26;-18562.66;;;19.92;100.00
24746;BME280;12845;52.042;6.838;2023-04-22T11:30:02;-18565.22;;;20.01;100.00
24746;BME280;12845;52.042;6.838;2023-04-22T11:32:28;-18565.50;;;20.02;100.00
24746;BME280;12845;52.042;6.838;2023-04-22T11:34:54;-18565.38;;;20.02;100.00
24746;BME280;12845;52.042;6.838;2023-04-22T11:37:20;-18567.97;;;20.12;100.00
24746;BME280;12845;52.042;6.838;2023-04-22T11:39:45;-18571.91;;;20.26;100.00
24746;BME280;12845;52.042;6.838;2023-04-22T11:42:12;-18576.78;;;20.45;100.00
24746;BME280;12845;52.042;6.838;2023-04-22T11:44:38;-18575.97;;;20.42;100.00
24746;BME280;12845;52.042;6.838;2023-04-22T11:47:03;-18576.25;;;20.43;100.00
24746;BME280;12845;52.042;6.838;2023-04-22T11:49:29;-18575.97;;;20.42;100.00
24746;BME280;12845;52.042;6.838;2023-04-22T11:51:57;-18573.41;;;20.32;100.00
24746;BME280;12845;52.042;6.838;2023-04-22T11:54:30;-18570.13;;;20.20;100.00
24746;BME280;12845;52.042;6.838;2023-04-22T11:56:55;-18572.59;;;20.29;100.00
24746;BME280;12845;52.042;6.838;2023-04-22T11:59:23;-18577.75;;;20.48;100.00
24746;BME280;12845;52.042;6.838;2023-04-22T12:01:50;-18578.84;;;20.53;100.00
24746;BME280;12845;52.042;6.838;2023-04-22T12:04:20;-18577.63;;;20.48;100.00
24746;BME280;12845;52.042;6.838;2023-04-22T12:06:46;-18574.63;;;20.37;100.00
24746;BME280;12845;52.042;6.838;2023-04-22T12:09:11;-18574.63;;;20.37;100.00
24746;BME280;12845;52.042;6.838;2023-04-22T12:11:37;-18578.03;;;20.49;100.00
24746;BME280;12845;52.042;6.838;2023-04-22T12:14:06;-18581.16;;;20.61;100.00
24746;BME280;12845;52.042;6.838;2023-04-22T12:16:41;-18581.03;;;20.61;100.00
24746;BME280;12845;52.042;6.838;2023-04-22T12:19:07;-18580.47;;;20.59;100.00
24746;BME280;12845;52.042;6.838;2023-04-22T12:21:32;-18581.56;;;20.63;100.00
24746;BME280;12845;52.042;6.838;2023-04-22T12:23:59;-18581.69;;;20.63;100.00
24746;BME280;12845;52.042;6.838;2023-04-22T12:26:26;-18581.84;;;20.64;100.00
24746;BME280;12845;52.042;6.838;2023-04-22T12:28:52;-18579.38;;;20.55;100.00
24746;BME280;12845;52.042;6.838;2023-04-22T12:31:17;-18577.06;;;20.46;100.00
24746;BME280;12845;52.042;6.838;2023-04-22T12:33:44;-18578.03;;;20.49;100.00
24746;BME280;12845;52.042;6.838;2023-04-22T12:36:10;-18579.38;;;20.55;100.00
24746;BME280;12845;52.042;6.838;2023-04-22T12:38:36;-18582.66;;;20.67;100.00
24746;BME280;12845;52.042;6.838;2023-04-22T12:41:02;-18583.34;;;20.69;100.00
24746;BME280;12845;52.042;6.838;2023-04-22T12:43:28;-18587.00;;;20.83;100.00
24746;BME280;12845;52.042;6.838;2023-04-22T12:45:54;-18589.47;;;20.92;100.00
24746;BME280;12845;52.042;6.838;2023-04-22T12:48:19;-18587.69;;;20.86;100.00
24746;BME280;12845;52.042;6.838;2023-04-22T12:50:45;-18586.31;;;20.81;100.00
24746;BME280;12845;52.042;6.838;2023-04-22T12:53:10;-18584.56;;;20.74;100.00